Time,TemperatureF,DewpointF,PressureIn,WindDirection,WindDirectionDegrees,WindSpeedMPH,WindSpeedGustMPH,Humidity,HourlyPrecipIn,Conditions,Clouds,dailyrainin,SolarRadiationWatts/m^2,SoftwareType,DateUTC
2013-09-02 00:00:00,72.2,70.4,29.85,South,178,1.0,1.0,94,0.00,,,0.00,0,Wunderground v.1.15,2013-09-02 04:00:00,
2013-09-02 00:05:00,72.2,70.4,29.85,South,186,0.0,1.0,94,0.00,,,0.00,0,Wunderground v.1.15,2013-09-02 04:05:00,
2013-09-02 00:10:00,72.3,70.5,29.85,SSE,165,0.0,0.0,94,0.00,,,0.00,0,Wunderground v.1.15,2013-09-02 04:10:00,
2013-09-02 00:15:00,72.3,70.5,29.84,SSE,165,0.0,0.0,94,0.00,,,0.00,0,Wunderground v.1.15,2013-09-02 04:15:00,
2013-09-02 00:20:00,72.3,70.5,29.84,South,179,0.0,3.0,94,0.00,,,0.00,0,Wunderground v.1.15,2013-09-02 04:20:00,
2013-09-02 00:25:00,72.3,70.5,29.84,South,175,0.0,3.0,94,0.00,,,0.00,0,Wunderground v.1.15,2013-09-02 04:25:00,
2013-09-02 00:30:00,72.3,70.5,29.84,South,185,1.0,3.0,94,0.00,,,0.00,0,Wunderground v.1.15,2013-09-02 04:30:00,
2013-09-02 00:40:00,72.3,70.5,29.84,SSW,194,1.0,1.0,94,0.00,,,0.00,0,Wunderground v.1.15,2013-09-02 04:40:00,
2013-09-02 00:50:00,72.2,70.4,29.84,SSW,196,1.0,1.0,94,0.00,,,0.00,0,Wunderground v.1.15,2013-09-02 04:50:00,
2013-09-02 00:55:00,72.2,70.4,29.84,SSE,163,1.0,1.0,94,0.00,,,0.00,0,Wunderground v.1.15,2013-09-02 04:55:00,
2013-09-02 01:00:00,72.2,70.4,29.84,South,175,1.0,1.0,94,0.00,,,0.00,0,Wunderground v.1.15,2013-09-02 05:00:00,
2013-09-02 01:10:00,72.2,70.4,29.84,South,189,1.0,1.0,94,0.00,,,0.00,0,Wunderground v.1.15,2013-09-02 05:10:00,
2013-09-02 01:20:00,72.3,70.5,29.83,South,177,1.0,1.0,94,0.00,,,0.00,0,Wunderground v.1.15,2013-09-02 05:20:00,
2013-09-02 01:25:00,72.3,70.5,29.83,South,185,1.0,3.0,94,0.00,,,0.00,0,Wunderground v.1.15,2013-09-02 05:25:00,
2013-09-02 01:30:00,72.4,70.6,29.83,South,184,1.0,1.0,94,0.00,,,0.00,0,Wunderground v.1.15,2013-09-02 05:30:00,
2013-09-02 01:40:00,72.5,70.7,29.83,SW,226,1.0,1.0,94,0.00,,,0.00,0,Wunderground v.1.15,2013-09-02 05:40:00,
2013-09-02 01:50:00,72.5,70.7,29.83,South,178,1.0,1.0,94,0.00,,,0.00,0,Wunderground v.1.15,2013-09-02 05:50:00,
2013-09-02 02:00:00,72.4,70.6,29.83,South,171,0.0,0.0,94,0.00,,,0.00,0,Wunderground v.1.15,2013-09-02 06:00:00,
2013-09-02 02:10:00,72.3,70.5,29.83,South,191,1.0,1.0,94,0.00,,,0.00,0,Wunderground v.1.15,2013-09-02 06:10:00,
2013-09-02 02:20:00,72.2,70.4,29.83,SSE,165,1.0,1.0,94,0.00,,,0.00,0,Wunderground v.1.15,2013-09-02 06:20:00,
2013-09-02 02:25:00,72.1,70.3,29.83,SSW,194,1.0,1.0,94,0.00,,,0.00,0,Wunderground v.1.15,2013-09-02 06:25:00,
2013-09-02 02:35:00,72.1,70.3,29.83,South,182,1.0,4.0,94,0.00,,,0.00,0,Wunderground v.1.15,2013-09-02 06:35:00,
2013-09-02 02:45:00,72.0,70.2,29.82,South,169,0.0,1.0,94,0.00,,,0.00,0,Wunderground v.1.15,2013-09-02 06:45:00,
2013-09-02 02:50:00,72.0,70.2,29.82,South,175,0.0,0.0,94,0.00,,,0.00,0,Wunderground v.1.15,2013-09-02 06:50:00,
2013-09-02 03:00:00,72.0,70.2,29.82,SSW,195,0.0,0.0,94,0.00,,,0.00,0,Wunderground v.1.15,2013-09-02 07:00:00,
2013-09-02 03:05:00,72.0,70.2,29.81,SSW,195,0.0,0.0,94,0.00,,,0.00,0,Wunderground v.1.15,2013-09-02 07:05:00,
2013-09-02 03:10:00,72.0,70.2,29.81,South,190,0.0,2.0,94,0.00,,,0.00,0,Wunderground v.1.15,2013-09-02 07:10:00,
2013-09-02 03:20:00,71.9,70.1,29.81,South,186,1.0,1.0,94,0.00,,,0.00,0,Wunderground v.1.15,2013-09-02 07:20:00,
2013-09-02 03:30:00,71.8,70.0,29.80,South,186,0.0,3.0,94,0.00,,,0.00,0,Wunderground v.1.15,2013-09-02 07:30:00,
2013-09-02 03:40:00,71.8,70.0,29.81,South,180,1.0,1.0,94,0.00,,,0.00,0,Wunderground v.1.15,2013-09-02 07:40:00,
2013-09-02 03:50:00,71.9,70.1,29.81,South,189,0.0,0.0,94,0.00,,,0.00,0,Wunderground v.1.15,2013-09-02 07:50:00,
2013-09-02 03:55:00,71.9,70.1,29.81,South,189,0.0,0.0,94,0.00,,,0.00,0,Wunderground v.1.15,2013-09-02 07:55:00,
2013-09-02 04:05:00,71.9,70.1,29.81,WSW,242,0.0,1.0,94,0.00,,,0.00,0,Wunderground v.1.15,2013-09-02 08:05:00,
2013-09-02 04:10:00,71.9,70.1,29.81,WSW,240,0.0,0.0,94,0.00,,,0.00,0,Wunderground v.1.15,2013-09-02 08:10:00,
2013-09-02 04:15:00,71.9,70.1,29.80,WSW,240,0.0,0.0,94,0.00,,,0.00,0,Wunderground v.1.15,2013-09-02 08:15:00,
2013-09-02 04:25:00,71.9,70.1,29.80,South,178,0.0,0.0,94,0.00,,,0.00,0,Wunderground v.1.15,2013-09-02 08:25:00,
2013-09-02 04:30:00,71.9,70.1,29.80,South,173,0.0,1.0,94,0.00,,,0.00,0,Wunderground v.1.15,2013-09-02 08:30:00,
2013-09-02 04:35:00,71.9,70.1,29.80,SSE,156,1.0,1.0,94,0.00,,,0.00,0,Wunderground v.1.15,2013-09-02 08:35:00,
2013-09-02 04:45:00,71.8,70.0,29.80,South,188,0.0,1.0,94,0.00,,,0.00,0,Wunderground v.1.15,2013-09-02 08:45:00,
2013-09-02 04:50:00,71.9,70.1,29.80,South,186,0.0,0.0,94,0.00,,,0.00,0,Wunderground v.1.15,2013-09-02 08:50:00,
2013-09-02 04:55:00,71.9,70.1,29.80,South,187,0.0,0.0,94,0.00,,,0.00,0,Wunderground v.1.15,2013-09-02 08:55:00,
2013-09-02 05:05:00,72.0,70.2,29.80,SSE,168,0.0,1.0,94,0.00,,,0.00,0,Wunderground v.1.15,2013-09-02 09:05:00,
2013-09-02 05:15:00,72.1,70.3,29.81,South,180,0.0,2.0,94,0.00,,,0.00,0,Wunderground v.1.15,2013-09-02 09:15:00,
2013-09-02 05:20:00,72.1,70.3,29.81,SSE,161,0.0,0.0,94,0.00,,,0.00,0,Wunderground v.1.15,2013-09-02 09:20:00,
2013-09-02 05:25:00,72.2,70.7,29.81,South,169,0.0,0.0,95,0.00,,,0.00,0,Wunderground v.1.15,2013-09-02 09:25:00,
2013-09-02 05:35:00,72.3,70.8,29.81,South,185,0.0,0.0,95,0.00,,,0.00,0,Wunderground v.1.15,2013-09-02 09:35:00,
2013-09-02 05:40:00,72.4,70.9,29.80,South,182,0.0,0.0,95,0.00,,,0.00,0,Wunderground v.1.15,2013-09-02 09:40:00,
2013-09-02 05:50:00,72.4,70.9,29.81,South,175,0.0,2.0,95,0.00,,,0.00,0,Wunderground v.1.15,2013-09-02 09:50:00,
2013-09-02 05:55:00,72.4,70.9,29.81,South,184,0.0,2.0,95,0.00,,,0.00,0,Wunderground v.1.15,2013-09-02 09:55:00,
2013-09-02 06:05:00,72.3,70.8,29.81,SSW,197,1.0,2.0,95,0.00,,,0.00,0,Wunderground v.1.15,2013-09-02 10:05:00,
2013-09-02 06:10:00,72.4,70.9,29.81,South,180,1.0,1.0,95,0.00,,,0.00,0,Wunderground v.1.15,2013-09-02 10:10:00,
2013-09-02 06:15:00,72.4,70.9,29.81,South,188,1.0,2.0,95,0.00,,,0.00,0,Wunderground v.1.15,2013-09-02 10:15:00,
2013-09-02 06:25:00,72.5,71.0,29.81,South,184,0.0,0.0,95,0.00,,,0.00,0,Wunderground v.1.15,2013-09-02 10:25:00,
2013-09-02 06:35:00,72.5,70.7,29.81,South,188,0.0,0.0,94,0.00,,,0.00,7,Wunderground v.1.15,2013-09-02 10:35:00,
2013-09-02 06:40:00,72.5,70.7,29.81,South,188,0.0,0.0,94,0.00,,,0.00,14,Wunderground v.1.15,2013-09-02 10:40:00,
2013-09-02 06:50:00,72.4,70.9,29.82,South,182,0.0,0.0,95,0.00,,,0.00,14,Wunderground v.1.15,2013-09-02 10:50:00,
2013-09-02 06:55:00,72.4,70.9,29.82,SSW,195,0.0,0.0,95,0.00,,,0.00,11,Wunderground v.1.15,2013-09-02 10:55:00,
2013-09-02 07:05:00,72.5,71.0,29.82,South,173,0.0,0.0,95,0.00,,,0.00,5,Wunderground v.1.15,2013-09-02 11:05:00,
2013-09-02 07:15:00,72.5,71.0,29.82,South,175,0.0,3.0,95,0.65,,,0.02,11,Wunderground v.1.15,2013-09-02 11:15:00,
2013-09-02 07:20:00,72.5,70.7,29.81,South,176,0.0,0.0,94,0.12,,,0.03,14,Wunderground v.1.15,2013-09-02 11:20:00,
2013-09-02 07:25:00,72.5,71.0,29.81,SSW,196,1.0,1.0,95,0.06,,,0.03,16,Wunderground v.1.15,2013-09-02 11:25:00,
2013-09-02 07:30:00,72.5,71.0,29.82,South,190,0.0,1.0,95,0.06,,,0.04,12,Wunderground v.1.15,2013-09-02 11:30:00,
2013-09-02 07:40:00,72.4,70.9,29.81,South,189,0.0,0.0,95,0.04,,,0.04,18,Wunderground v.1.15,2013-09-02 11:40:00,
2013-09-02 07:50:00,72.3,70.8,29.81,South,188,0.0,0.0,95,0.00,,,0.04,12,Wunderground v.1.15,2013-09-02 11:50:00,
2013-09-02 08:00:00,72.1,70.3,29.81,South,188,0.0,0.0,94,0.00,,,0.04,19,Wunderground v.1.15,2013-09-02 12:00:00,
2013-09-02 08:10:00,72.0,70.2,29.82,South,189,0.0,0.0,94,0.00,,,0.04,39,Wunderground v.1.15,2013-09-02 12:10:00,
2013-09-02 08:15:00,71.9,70.1,29.81,South,189,0.0,0.0,94,0.00,,,0.04,39,Wunderground v.1.15,2013-09-02 12:15:00,
2013-09-02 08:25:00,71.6,69.8,29.81,South,173,0.0,0.0,94,0.00,,,0.04,60,Wunderground v.1.15,2013-09-02 12:25:00,
2013-09-02 08:30:00,71.5,69.7,29.81,South,171,0.0,0.0,94,0.00,,,0.04,88,Wunderground v.1.15,2013-09-02 12:30:00,
2013-09-02 08:40:00,71.5,69.7,29.81,SSW,194,0.0,0.0,94,0.00,,,0.04,47,Wunderground v.1.15,2013-09-02 12:40:00,
2013-09-02 08:45:00,71.5,69.7,29.80,SSW,194,0.0,0.0,94,0.00,,,0.04,83,Wunderground v.1.15,2013-09-02 12:45:00,
2013-09-02 08:55:00,71.7,69.9,29.80,SSW,193,0.0,0.0,94,0.00,,,0.04,47,Wunderground v.1.15,2013-09-02 12:55:00,
2013-09-02 09:00:00,71.7,69.9,29.80,SSW,193,0.0,0.0,94,0.00,,,0.04,44,Wunderground v.1.15,2013-09-02 13:00:00,
2013-09-02 09:10:00,71.7,69.9,29.80,SSW,194,0.0,0.0,94,0.00,,,0.04,46,Wunderground v.1.15,2013-09-02 13:10:00,
2013-09-02 09:15:00,71.7,69.9,29.80,SSW,193,0.0,0.0,94,0.00,,,0.04,60,Wunderground v.1.15,2013-09-02 13:15:00,
2013-09-02 09:20:00,71.6,69.8,29.80,SSW,193,0.0,0.0,94,0.00,,,0.04,42,Wunderground v.1.15,2013-09-02 13:20:00,
2013-09-02 09:30:00,71.6,69.8,29.81,SSW,194,0.0,0.0,94,0.00,,,0.04,37,Wunderground v.1.15,2013-09-02 13:30:00,
2013-09-02 09:40:00,71.7,69.9,29.81,SSW,192,0.0,0.0,94,0.00,,,0.04,32,Wunderground v.1.15,2013-09-02 13:40:00,
2013-09-02 09:45:00,71.8,70.0,29.81,South,182,0.0,0.0,94,0.00,,,0.04,42,Wunderground v.1.15,2013-09-02 13:45:00,
2013-09-02 09:55:00,72.2,70.4,29.81,South,169,0.0,0.0,94,0.00,,,0.04,63,Wunderground v.1.15,2013-09-02 13:55:00,
2013-09-02 10:00:00,72.3,70.8,29.81,South,173,0.0,0.0,95,0.00,,,0.04,47,Wunderground v.1.15,2013-09-02 14:00:00,
2013-09-02 10:10:00,72.6,70.8,29.81,South,181,1.0,1.0,94,0.00,,,0.04,97,Wunderground v.1.15,2013-09-02 14:10:00,
2013-09-02 10:15:00,72.8,71.0,29.81,SSW,192,0.0,1.0,94,0.00,,,0.04,54,Wunderground v.1.15,2013-09-02 14:15:00,
2013-09-02 10:20:00,73.0,71.5,29.81,South,181,0.0,2.0,95,0.00,,,0.04,72,Wunderground v.1.15,2013-09-02 14:20:00,
2013-09-02 10:30:00,73.3,71.5,29.82,SSW,192,1.0,2.0,94,0.00,,,0.04,121,Wunderground v.1.15,2013-09-02 14:30:00,
2013-09-02 10:40:00,73.5,72.0,29.82,South,173,1.0,1.0,95,0.00,,,0.04,60,Wunderground v.1.15,2013-09-02 14:40:00,
2013-09-02 10:45:00,73.6,72.1,29.82,South,191,1.0,1.0,95,0.00,,,0.04,53,Wunderground v.1.15,2013-09-02 14:45:00,
2013-09-02 10:55:00,73.6,71.8,29.82,South,179,0.0,1.0,94,0.00,,,0.04,72,Wunderground v.1.15,2013-09-02 14:55:00,
2013-09-02 11:00:00,73.6,71.8,29.81,South,177,0.0,0.0,94,0.00,,,0.04,105,Wunderground v.1.15,2013-09-02 15:00:00,
2013-09-02 11:05:00,73.7,71.9,29.81,SSE,166,0.0,0.0,94,0.00,,,0.04,95,Wunderground v.1.15,2013-09-02 15:05:00,
2013-09-02 11:15:00,73.7,71.9,29.81,South,182,0.0,1.0,94,0.00,,,0.04,74,Wunderground v.1.15,2013-09-02 15:15:00,
2013-09-02 11:25:00,73.5,71.7,29.81,South,179,1.0,1.0,94,0.00,,,0.04,111,Wunderground v.1.15,2013-09-02 15:25:00,
2013-09-02 11:35:00,73.5,71.7,29.81,SSE,151,1.0,3.0,94,0.00,,,0.04,156,Wunderground v.1.15,2013-09-02 15:35:00,
2013-09-02 11:45:00,73.8,72.0,29.81,SSW,192,1.0,1.0,94,0.00,,,0.04,220,Wunderground v.1.15,2013-09-02 15:45:00,
2013-09-02 11:50:00,74.1,72.3,29.81,SSW,201,1.0,1.0,94,0.00,,,0.04,174,Wunderground v.1.15,2013-09-02 15:50:00,
2013-09-02 11:55:00,74.2,72.4,29.81,South,177,1.0,1.0,94,0.00,,,0.04,183,Wunderground v.1.15,2013-09-02 15:55:00,
2013-09-02 12:05:00,74.5,72.7,29.80,South,188,0.0,1.0,94,0.00,,,0.04,76,Wunderground v.1.15,2013-09-02 16:05:00,
2013-09-02 12:10:00,74.4,72.6,29.80,South,188,0.0,2.0,94,0.00,,,0.04,100,Wunderground v.1.15,2013-09-02 16:10:00,
2013-09-02 12:20:00,74.4,72.6,29.80,SSW,209,1.0,2.0,94,0.00,,,0.04,76,Wunderground v.1.15,2013-09-02 16:20:00,
2013-09-02 12:25:00,74.4,72.6,29.80,South,182,1.0,2.0,94,0.00,,,0.04,165,Wunderground v.1.15,2013-09-02 16:25:00,
2013-09-02 12:35:00,74.6,72.8,29.79,SSW,201,1.0,1.0,94,0.00,,,0.04,160,Wunderground v.1.15,2013-09-02 16:35:00,
2013-09-02 12:45:00,74.7,72.5,29.78,SSW,198,1.0,1.0,93,0.00,,,0.04,111,Wunderground v.1.15,2013-09-02 16:45:00,
2013-09-02 12:55:00,74.7,72.5,29.78,SSE,156,0.0,1.0,93,0.00,,,0.04,86,Wunderground v.1.15,2013-09-02 16:55:00,
2013-09-02 13:00:00,74.8,72.6,29.78,SSE,161,0.0,0.0,93,0.00,,,0.04,90,Wunderground v.1.15,2013-09-02 17:00:00,
2013-09-02 13:05:00,74.8,72.6,29.78,South,186,0.0,0.0,93,0.00,,,0.04,107,Wunderground v.1.15,2013-09-02 17:05:00,
2013-09-02 13:15:00,74.8,72.6,29.78,SW,219,0.0,0.0,93,0.00,,,0.04,97,Wunderground v.1.15,2013-09-02 17:15:00,
2013-09-02 13:20:00,74.8,72.6,29.79,SW,215,0.0,0.0,93,0.00,,,0.04,111,Wunderground v.1.15,2013-09-02 17:20:00,
2013-09-02 13:25:00,74.9,72.7,29.78,South,190,0.0,0.0,93,0.00,,,0.04,149,Wunderground v.1.15,2013-09-02 17:25:00,
2013-09-02 13:30:00,75.0,72.8,29.78,SSW,194,0.0,1.0,93,0.00,,,0.04,174,Wunderground v.1.15,2013-09-02 17:30:00,
2013-09-02 13:40:00,75.2,73.0,29.78,SSW,212,0.0,0.0,93,0.00,,,0.04,158,Wunderground v.1.15,2013-09-02 17:40:00,
2013-09-02 13:45:00,75.3,72.8,29.79,South,176,0.0,1.0,92,0.00,,,0.04,107,Wunderground v.1.15,2013-09-02 17:45:00,
2013-09-02 13:55:00,75.5,73.0,29.79,South,182,1.0,1.0,92,0.00,,,0.04,113,Wunderground v.1.15,2013-09-02 17:55:00,
2013-09-02 14:00:00,75.5,72.7,29.79,South,187,1.0,1.0,91,0.00,,,0.04,56,Wunderground v.1.15,2013-09-02 18:00:00,
2013-09-02 14:09:00,75.4,72.6,29.79,South,186,1.0,1.0,91,0.00,,,0.04,77,Wunderground v.1.15,2013-09-02 18:09:00,
2013-09-02 14:15:00,75.4,72.6,29.78,South,188,0.0,1.0,91,0.00,,,0.04,56,Wunderground v.1.15,2013-09-02 18:15:00,
2013-09-02 14:20:00,75.3,72.5,29.78,South,184,1.0,2.0,91,0.00,,,0.04,47,Wunderground v.1.15,2013-09-02 18:20:00,
2013-09-02 14:25:00,75.2,72.4,29.78,South,180,1.0,2.0,91,0.00,,,0.04,70,Wunderground v.1.15,2013-09-02 18:25:00,
2013-09-02 14:35:00,75.1,72.6,29.78,South,178,0.0,1.0,92,0.00,,,0.04,76,Wunderground v.1.15,2013-09-02 18:35:00,
2013-09-02 14:40:00,75.1,72.6,29.78,WSW,248,0.0,0.0,92,0.00,,,0.04,60,Wunderground v.1.15,2013-09-02 18:40:00,
2013-09-02 14:45:00,75.1,72.6,29.78,SSW,200,0.0,0.0,92,0.00,,,0.04,93,Wunderground v.1.15,2013-09-02 18:45:00,
2013-09-02 14:55:00,75.0,72.5,29.77,SW,215,1.0,1.0,92,0.00,,,0.04,91,Wunderground v.1.15,2013-09-02 18:55:00,
2013-09-02 15:05:00,75.0,72.5,29.77,South,186,1.0,1.0,92,0.00,,,0.04,100,Wunderground v.1.15,2013-09-02 19:05:00,
2013-09-02 15:10:00,75.0,72.5,29.77,SSW,200,1.0,1.0,92,0.00,,,0.04,88,Wunderground v.1.15,2013-09-02 19:10:00,
2013-09-02 15:20:00,74.9,72.4,29.77,SSW,198,1.0,1.0,92,0.00,,,0.04,95,Wunderground v.1.15,2013-09-02 19:20:00,
2013-09-02 15:30:00,74.8,72.3,29.77,South,189,1.0,1.0,92,0.00,,,0.04,111,Wunderground v.1.15,2013-09-02 19:30:00,
2013-09-02 15:40:00,74.8,72.3,29.77,South,184,0.0,1.0,92,0.00,,,0.04,69,Wunderground v.1.15,2013-09-02 19:40:00,
2013-09-02 15:45:00,74.8,72.3,29.77,South,187,0.0,3.0,92,0.00,,,0.04,60,Wunderground v.1.15,2013-09-02 19:45:00,
2013-09-02 15:55:00,74.8,72.3,29.76,South,181,0.0,0.0,92,0.00,,,0.04,44,Wunderground v.1.15,2013-09-02 19:55:00,
2013-09-02 16:00:00,74.7,72.2,29.76,SSE,159,1.0,1.0,92,0.00,,,0.04,30,Wunderground v.1.15,2013-09-02 20:00:00,
2013-09-02 16:05:00,74.7,72.2,29.76,SSW,198,1.0,1.0,92,0.00,,,0.04,28,Wunderground v.1.15,2013-09-02 20:05:00,
2013-09-02 16:10:00,74.6,71.8,29.76,SSW,196,1.0,2.0,91,0.00,,,0.04,32,Wunderground v.1.15,2013-09-02 20:10:00,
2013-09-02 16:20:00,74.3,71.8,29.76,South,188,1.0,1.0,92,0.00,,,0.04,39,Wunderground v.1.15,2013-09-02 20:20:00,
2013-09-02 16:25:00,74.2,71.7,29.76,SSW,203,1.0,1.0,92,0.00,,,0.04,35,Wunderground v.1.15,2013-09-02 20:25:00,
2013-09-02 16:35:00,74.1,71.6,29.75,South,186,0.0,0.0,92,0.00,,,0.04,40,Wunderground v.1.15,2013-09-02 20:35:00,
2013-09-02 16:45:00,74.0,71.5,29.74,SSE,167,0.0,0.0,92,0.00,,,0.04,51,Wunderground v.1.15,2013-09-02 20:45:00,
2013-09-02 16:50:00,73.9,71.4,29.73,South,184,1.0,1.0,92,0.00,,,0.04,56,Wunderground v.1.15,2013-09-02 20:50:00,
2013-09-02 17:00:00,73.8,71.3,29.73,South,189,0.0,0.0,92,0.00,,,0.04,69,Wunderground v.1.15,2013-09-02 21:00:00,
2013-09-02 17:10:00,73.8,71.6,29.74,West,259,0.0,2.0,93,0.00,,,0.04,54,Wunderground v.1.15,2013-09-02 21:10:00,
2013-09-02 17:15:00,73.8,71.3,29.75,SW,225,0.0,2.0,92,0.00,,,0.04,49,Wunderground v.1.15,2013-09-02 21:15:00,
2013-09-02 17:25:00,73.7,71.5,29.75,South,190,1.0,2.0,93,0.00,,,0.04,60,Wunderground v.1.15,2013-09-02 21:25:00,
2013-09-02 17:35:00,73.7,71.5,29.75,SW,228,1.0,1.0,93,0.00,,,0.04,40,Wunderground v.1.15,2013-09-02 21:35:00,
2013-09-02 17:40:00,73.7,71.5,29.75,SSE,163,0.0,2.0,93,0.00,,,0.04,39,Wunderground v.1.15,2013-09-02 21:40:00,
2013-09-02 17:50:00,73.7,71.5,29.74,South,182,0.0,0.0,93,0.00,,,0.04,74,Wunderground v.1.15,2013-09-02 21:50:00,
2013-09-02 17:55:00,73.8,71.6,29.74,South,182,0.0,0.0,93,0.00,,,0.04,69,Wunderground v.1.15,2013-09-02 21:55:00,
2013-09-02 18:00:00,73.9,71.7,29.74,South,188,0.0,0.0,93,0.00,,,0.04,28,Wunderground v.1.15,2013-09-02 22:00:00,
2013-09-02 18:10:00,73.9,71.7,29.74,SSE,153,0.0,0.0,93,0.00,,,0.04,18,Wunderground v.1.15,2013-09-02 22:10:00,
2013-09-02 18:15:00,73.9,71.7,29.74,South,190,0.0,2.0,93,0.00,,,0.04,23,Wunderground v.1.15,2013-09-02 22:15:00,
2013-09-02 18:25:00,73.8,71.6,29.73,SSW,209,1.0,1.0,93,0.00,,,0.04,30,Wunderground v.1.15,2013-09-02 22:25:00,
2013-09-02 18:30:00,73.8,71.6,29.73,SSW,194,1.0,1.0,93,0.00,,,0.04,23,Wunderground v.1.15,2013-09-02 22:30:00,
2013-09-02 18:40:00,73.7,71.5,29.73,South,170,1.0,1.0,93,0.00,,,0.04,25,Wunderground v.1.15,2013-09-02 22:40:00,
2013-09-02 18:50:00,73.4,71.3,29.73,SSW,204,1.0,1.0,93,0.00,,,0.04,14,Wunderground v.1.15,2013-09-02 22:50:00,
2013-09-02 19:00:00,73.3,71.2,29.73,SE,145,0.0,0.0,93,0.00,,,0.04,7,Wunderground v.1.15,2013-09-02 23:00:00,
2013-09-02 19:10:00,73.1,71.0,29.73,South,173,0.0,0.0,93,0.00,,,0.04,0,Wunderground v.1.15,2013-09-02 23:10:00,
2013-09-02 19:19:00,72.9,70.8,29.73,WSW,256,1.0,1.0,93,0.00,,,0.04,0,Wunderground v.1.15,2013-09-02 23:19:00,
2013-09-02 19:25:00,72.8,70.7,29.73,SSE,148,0.0,1.0,93,0.00,,,0.04,0,Wunderground v.1.15,2013-09-02 23:25:00,
2013-09-02 19:35:00,72.7,70.6,29.73,South,174,0.0,0.0,93,0.00,,,0.04,0,Wunderground v.1.15,2013-09-02 23:35:00,
2013-09-02 19:40:00,72.6,70.5,29.73,SW,216,0.0,0.0,93,0.00,,,0.04,0,Wunderground v.1.15,2013-09-02 23:40:00,
2013-09-02 19:50:00,72.5,70.7,29.74,SW,220,0.0,1.0,94,0.00,,,0.04,0,Wunderground v.1.15,2013-09-02 23:50:00,
2013-09-02 19:55:00,72.4,70.6,29.73,SSW,202,1.0,1.0,94,0.00,,,0.04,0,Wunderground v.1.15,2013-09-02 23:55:00,
2013-09-02 20:05:00,72.2,70.4,29.73,SSW,197,1.0,1.0,94,0.00,,,0.04,0,Wunderground v.1.15,2013-09-03 00:05:00,
2013-09-02 20:10:00,72.1,70.3,29.74,ESE,118,1.0,1.0,94,0.00,,,0.04,0,Wunderground v.1.15,2013-09-03 00:10:00,
2013-09-02 20:15:00,72.1,70.3,29.74,SSE,157,0.0,1.0,94,0.00,,,0.04,0,Wunderground v.1.15,2013-09-03 00:15:00,
2013-09-02 20:25:00,72.1,70.3,29.73,SSW,205,1.0,1.0,94,0.00,,,0.04,0,Wunderground v.1.15,2013-09-03 00:25:00,
2013-09-02 20:35:00,72.0,70.2,29.73,SSW,208,0.0,0.0,94,0.00,,,0.04,0,Wunderground v.1.15,2013-09-03 00:35:00,
2013-09-02 20:40:00,72.0,70.2,29.73,SSW,202,0.0,0.0,94,0.00,,,0.04,0,Wunderground v.1.15,2013-09-03 00:40:00,
2013-09-02 20:50:00,72.0,70.2,29.73,WSW,256,0.0,0.0,94,0.00,,,0.04,0,Wunderground v.1.15,2013-09-03 00:50:00,
2013-09-02 20:55:00,72.0,70.2,29.73,WSW,255,0.0,0.0,94,0.00,,,0.04,0,Wunderground v.1.15,2013-09-03 00:55:00,
2013-09-02 21:05:00,72.0,70.2,29.73,South,176,0.0,0.0,94,0.00,,,0.04,0,Wunderground v.1.15,2013-09-03 01:05:00,
2013-09-02 21:10:00,72.0,70.2,29.73,ESE,113,0.0,0.0,94,0.00,,,0.04,0,Wunderground v.1.15,2013-09-03 01:10:00,
2013-09-02 21:20:00,72.0,70.2,29.74,SSW,194,0.0,0.0,94,0.00,,,0.04,0,Wunderground v.1.15,2013-09-03 01:20:00,
2013-09-02 21:30:00,71.9,70.1,29.74,SW,225,0.0,0.0,94,0.00,,,0.04,0,Wunderground v.1.15,2013-09-03 01:30:00,
2013-09-02 21:35:00,71.8,70.0,29.74,SSW,212,0.0,0.0,94,0.00,,,0.04,0,Wunderground v.1.15,2013-09-03 01:35:00,
2013-09-02 21:45:00,71.7,69.9,29.75,SSW,209,0.0,0.0,94,0.00,,,0.04,0,Wunderground v.1.15,2013-09-03 01:45:00,
2013-09-02 21:55:00,71.5,69.7,29.75,SW,215,0.0,0.0,94,0.00,,,0.04,0,Wunderground v.1.15,2013-09-03 01:55:00,
2013-09-02 22:05:00,71.5,69.7,29.75,South,180,0.0,0.0,94,0.00,,,0.04,0,Wunderground v.1.15,2013-09-03 02:05:00,
2013-09-02 22:15:00,71.5,69.7,29.75,SSE,159,0.0,0.0,94,0.00,,,0.04,0,Wunderground v.1.15,2013-09-03 02:15:00,
2013-09-02 22:20:00,71.5,69.7,29.75,SSE,159,0.0,0.0,94,0.00,,,0.04,0,Wunderground v.1.15,2013-09-03 02:20:00,
2013-09-02 22:29:00,71.5,69.7,29.75,SSE,159,0.0,0.0,94,0.00,,,0.04,0,Wunderground v.1.15,2013-09-03 02:29:00,
2013-09-02 22:35:00,71.4,69.6,29.75,SSE,159,0.0,0.0,94,0.00,,,0.04,0,Wunderground v.1.15,2013-09-03 02:35:00,
2013-09-02 22:40:00,71.4,69.6,29.76,SSE,159,0.0,0.0,94,0.00,,,0.04,0,Wunderground v.1.15,2013-09-03 02:40:00,
2013-09-02 22:50:00,71.3,69.5,29.76,SSE,159,0.0,0.0,94,0.00,,,0.04,0,Wunderground v.1.15,2013-09-03 02:50:00,
2013-09-02 23:00:00,71.3,69.5,29.76,SSW,194,0.0,0.0,94,0.00,,,0.04,0,Wunderground v.1.15,2013-09-03 03:00:00,
2013-09-02 23:05:00,71.3,69.5,29.76,WSW,244,0.0,0.0,94,0.00,,,0.04,0,Wunderground v.1.15,2013-09-03 03:05:00,
2013-09-02 23:10:00,71.3,69.5,29.76,WSW,244,0.0,0.0,94,0.00,,,0.04,0,Wunderground v.1.15,2013-09-03 03:10:00,
2013-09-02 23:20:00,71.2,69.4,29.76,WSW,244,0.0,0.0,94,0.00,,,0.04,0,Wunderground v.1.15,2013-09-03 03:20:00,
2013-09-02 23:30:00,71.2,69.4,29.76,SW,228,0.0,0.0,94,0.00,,,0.04,0,Wunderground v.1.15,2013-09-03 03:30:00,
2013-09-02 23:35:00,71.1,69.3,29.76,SW,227,0.0,0.0,94,0.00,,,0.04,0,Wunderground v.1.15,2013-09-03 03:35:00,
2013-09-02 23:45:00,71.0,69.2,29.76,SSW,200,0.0,0.0,94,0.00,,,0.04,0,Wunderground v.1.15,2013-09-03 03:45:00,
2013-09-02 23:50:00,71.0,69.2,29.76,SSW,200,0.0,0.0,94,0.00,,,0.04,0,Wunderground v.1.15,2013-09-03 03:50:00,